<?xml version="1.0" encoding="UTF-8" standalone="no" ?>
<gpx xmlns="http://www.topografix.com/GPX/1/1" xmlns:xsi="http://www.w3.org/2001/XMLSchema-instance" xsi:schemaLocation="http://www.topografix.com/GPX/1/1 http://www.topografix.com/GPX/1/1/gpx.xsd" version="1.1" creator="VisuGPX - https://www.visugpx.com">
  <metadata>
    <name>Transcaucasie: Géorgie + Arménie</name>
  </metadata>
  <trk>
    <name><![CDATA[Tour d'Europe: étape 454]]></name>
    <extensions>
      <line xmlns="http://www.topografix.com/GPX/gpx_style/0/2">
        <color>008888</color>
        <width>4</width>
      </line>
    </extensions>
    <trkseg>
      <trkpt lat="42.28952" lon="43.29135">
        <ele>387.356243</ele>
        <time>2021-09-25T05:14:51.230Z</time>
      </trkpt>
      <trkpt lat="42.29091" lon="43.29105">
        <ele>390.430346</ele>
        <time>2021-09-25T05:21:29.213Z</time>
      </trkpt>
      <trkpt lat="42.2909" lon="43.29386">
        <ele>398.801338</ele>
        <time>2021-09-25T05:22:45.173Z</time>
      </trkpt>
      <trkpt lat="42.29167" lon="43.29654">
        <ele>395.686041</ele>
        <time>2021-09-25T05:23:53.202Z</time>
      </trkpt>
      <trkpt lat="42.29336" lon="43.29762">
        <ele>389.43746</ele>
        <time>2021-09-25T05:24:48.173Z</time>
      </trkpt>
      <trkpt lat="42.29125" lon="43.29747">
        <ele>379.030613</ele>
        <time>2021-09-25T05:25:42.214Z</time>
      </trkpt>
      <trkpt lat="42.2901" lon="43.29929">
        <ele>384.701832</ele>
        <time>2021-09-25T05:27:20.192Z</time>
      </trkpt>
      <trkpt lat="42.29179" lon="43.29958">
        <ele>404.483797</ele>
        <time>2021-09-25T05:29:39.196Z</time>
      </trkpt>
      <trkpt lat="42.2902" lon="43.30056">
        <ele>425.168104</ele>
        <time>2021-09-25T05:32:17.228Z</time>
      </trkpt>
      <trkpt lat="42.28938" lon="43.3028">
        <ele>438.166711</ele>
        <time>2021-09-25T05:34:31.180Z</time>
      </trkpt>
      <trkpt lat="42.28797" lon="43.30449">
        <ele>453.398987</ele>
        <time>2021-09-25T05:37:12.179Z</time>
      </trkpt>
      <trkpt lat="42.28699" lon="43.30661">
        <ele>486.648938</ele>
        <time>2021-09-25T05:39:56.183Z</time>
      </trkpt>
      <trkpt lat="42.28613" lon="43.30884">
        <ele>506.79856</ele>
        <time>2021-09-25T05:42:49.191Z</time>
      </trkpt>
      <trkpt lat="42.28449" lon="43.31021">
        <ele>518.992524</ele>
        <time>2021-09-25T05:45:29.180Z</time>
      </trkpt>
      <trkpt lat="42.28322" lon="43.31196">
        <ele>538.173586</ele>
        <time>2021-09-25T05:48:08.193Z</time>
      </trkpt>
      <trkpt lat="42.28239" lon="43.31451">
        <ele>559.577715</ele>
        <time>2021-09-25T05:51:38.176Z</time>
      </trkpt>
      <trkpt lat="42.28116" lon="43.31683">
        <ele>585.39636</ele>
        <time>2021-09-25T05:57:12.172Z</time>
      </trkpt>
      <trkpt lat="42.27991" lon="43.31842">
        <ele>614.026512</ele>
        <time>2021-09-25T06:00:22.213Z</time>
      </trkpt>
      <trkpt lat="42.27819" lon="43.31936">
        <ele>634.331426</ele>
        <time>2021-09-25T06:03:08.192Z</time>
      </trkpt>
      <trkpt lat="42.27734" lon="43.31824">
        <ele>642.957883</ele>
        <time>2021-09-25T06:06:22.166Z</time>
      </trkpt>
      <trkpt lat="42.27737" lon="43.31763">
        <ele>659.083765</ele>
        <time>2021-09-25T06:09:16.183Z</time>
      </trkpt>
      <trkpt lat="42.27584" lon="43.31906">
        <ele>680.651828</ele>
        <time>2021-09-25T06:12:12.160Z</time>
      </trkpt>
      <trkpt lat="42.27512" lon="43.32103">
        <ele>699.860937</ele>
        <time>2021-09-25T06:15:01.174Z</time>
      </trkpt>
      <trkpt lat="42.27594" lon="43.32318">
        <ele>715.991073</ele>
        <time>2021-09-25T06:18:04.175Z</time>
      </trkpt>
      <trkpt lat="42.27554" lon="43.32509">
        <ele>740.59716</ele>
        <time>2021-09-25T06:21:06.174Z</time>
      </trkpt>
      <trkpt lat="42.27393" lon="43.32602">
        <ele>755.91861</ele>
        <time>2021-09-25T06:23:35.169Z</time>
      </trkpt>
      <trkpt lat="42.2721" lon="43.32597">
        <ele>768.028231</ele>
        <time>2021-09-25T06:26:31.170Z</time>
      </trkpt>
      <trkpt lat="42.27046" lon="43.32787">
        <ele>764.906993</ele>
        <time>2021-09-25T06:27:43.179Z</time>
      </trkpt>
      <trkpt lat="42.26881" lon="43.32981">
        <ele>767.213851</ele>
        <time>2021-09-25T06:29:21.186Z</time>
      </trkpt>
      <trkpt lat="42.26796" lon="43.33215">
        <ele>771.468926</ele>
        <time>2021-09-25T06:31:08.232Z</time>
      </trkpt>
      <trkpt lat="42.26703" lon="43.33464">
        <ele>771.882383</ele>
        <time>2021-09-25T06:32:28.213Z</time>
      </trkpt>
      <trkpt lat="42.26546" lon="43.33629">
        <ele>777.927753</ele>
        <time>2021-09-25T06:34:00.180Z</time>
      </trkpt>
      <trkpt lat="42.26359" lon="43.33676">
        <ele>782.015379</ele>
        <time>2021-09-25T06:35:29.195Z</time>
      </trkpt>
      <trkpt lat="42.26151" lon="43.33611">
        <ele>779.855092</ele>
        <time>2021-09-25T06:36:35.187Z</time>
      </trkpt>
      <trkpt lat="42.2597" lon="43.33709">
        <ele>777.589636</ele>
        <time>2021-09-25T06:37:33.186Z</time>
      </trkpt>
      <trkpt lat="42.25804" lon="43.33904">
        <ele>772.707993</ele>
        <time>2021-09-25T06:38:26.182Z</time>
      </trkpt>
      <trkpt lat="42.25612" lon="43.34099">
        <ele>755.816174</ele>
        <time>2021-09-25T06:38:59.194Z</time>
      </trkpt>
      <trkpt lat="42.25415" lon="43.34225">
        <ele>742.757997</ele>
        <time>2021-09-25T07:44:26.187Z</time>
      </trkpt>
      <trkpt lat="42.25175" lon="43.34365">
        <ele>722.337402</ele>
        <time>2021-09-25T07:45:03.180Z</time>
      </trkpt>
      <trkpt lat="42.24951" lon="43.34557">
        <ele>706.465167</ele>
        <time>2021-09-25T07:45:43.207Z</time>
      </trkpt>
      <trkpt lat="42.24688" lon="43.34734">
        <ele>700.175811</ele>
        <time>2021-09-25T07:46:25.202Z</time>
      </trkpt>
      <trkpt lat="42.24493" lon="43.34781">
        <ele>710.375306</ele>
        <time>2021-09-25T07:47:44.202Z</time>
      </trkpt>
      <trkpt lat="42.24478" lon="43.35065">
        <ele>705.242888</ele>
        <time>2021-09-25T07:48:31.209Z</time>
      </trkpt>
      <trkpt lat="42.24456" lon="43.35355">
        <ele>696.054129</ele>
        <time>2021-09-25T07:49:28.192Z</time>
      </trkpt>
      <trkpt lat="42.2442" lon="43.35659">
        <ele>695.131688</ele>
        <time>2021-09-25T07:50:36.189Z</time>
      </trkpt>
      <trkpt lat="42.24368" lon="43.35923">
        <ele>701.120491</ele>
        <time>2021-09-25T07:51:38.205Z</time>
      </trkpt>
      <trkpt lat="42.24207" lon="43.36061">
        <ele>716.332741</ele>
        <time>2021-09-25T07:53:26.206Z</time>
      </trkpt>
      <trkpt lat="42.24101" lon="43.3628">
        <ele>718.390485</ele>
        <time>2021-09-25T07:55:15.209Z</time>
      </trkpt>
      <trkpt lat="42.24013" lon="43.3653">
        <ele>729.568828</ele>
        <time>2021-09-25T07:57:05.192Z</time>
      </trkpt>
      <trkpt lat="42.23871" lon="43.36715">
        <ele>747.796288</ele>
        <time>2021-09-25T07:59:06.222Z</time>
      </trkpt>
      <trkpt lat="42.23736" lon="43.36909">
        <ele>755.781103</ele>
        <time>2021-09-25T08:00:44.191Z</time>
      </trkpt>
      <trkpt lat="42.23586" lon="43.37088">
        <ele>766.546722</ele>
        <time>2021-09-25T08:02:26.231Z</time>
      </trkpt>
      <trkpt lat="42.23422" lon="43.37238">
        <ele>773.412902</ele>
        <time>2021-09-25T08:04:20.190Z</time>
      </trkpt>
      <trkpt lat="42.23281" lon="43.37416">
        <ele>786.636881</ele>
        <time>2021-09-25T08:06:35.204Z</time>
      </trkpt>
      <trkpt lat="42.23164" lon="43.37625">
        <ele>798.168559</ele>
        <time>2021-09-25T08:09:06.200Z</time>
      </trkpt>
      <trkpt lat="42.23157" lon="43.37887">
        <ele>806.477936</ele>
        <time>2021-09-25T08:10:59.187Z</time>
      </trkpt>
      <trkpt lat="42.23073" lon="43.38137">
        <ele>815.087623</ele>
        <time>2021-09-25T08:12:22.198Z</time>
      </trkpt>
      <trkpt lat="42.22853" lon="43.38182">
        <ele>822.160836</ele>
        <time>2021-09-25T08:26:00.204Z</time>
      </trkpt>
      <trkpt lat="42.22634" lon="43.38246">
        <ele>815.595972</ele>
        <time>2021-09-25T08:26:48.212Z</time>
      </trkpt>
      <trkpt lat="42.22413" lon="43.38306">
        <ele>818.676582</ele>
        <time>2021-09-25T08:27:42.194Z</time>
      </trkpt>
      <trkpt lat="42.22191" lon="43.38273">
        <ele>825.160721</ele>
        <time>2021-09-25T08:28:58.214Z</time>
      </trkpt>
      <trkpt lat="42.22002" lon="43.38154">
        <ele>828.163007</ele>
        <time>2021-09-25T08:30:12.216Z</time>
      </trkpt>
      <trkpt lat="42.21819" lon="43.38004">
        <ele>833.269772</ele>
        <time>2021-09-25T08:31:15.208Z</time>
      </trkpt>
      <trkpt lat="42.21623" lon="43.37898">
        <ele>830.358654</ele>
        <time>2021-09-25T08:32:22.230Z</time>
      </trkpt>
      <trkpt lat="42.21423" lon="43.38052">
        <ele>819.438204</ele>
        <time>2021-09-25T08:32:57.207Z</time>
      </trkpt>
      <trkpt lat="42.21273" lon="43.38271">
        <ele>808.393258</ele>
        <time>2021-09-25T08:33:19.191Z</time>
      </trkpt>
      <trkpt lat="42.21133" lon="43.38541">
        <ele>792.733096</ele>
        <time>2021-09-25T08:33:51.198Z</time>
      </trkpt>
      <trkpt lat="42.20996" lon="43.38753">
        <ele>787.948465</ele>
        <time>2021-09-25T08:34:52.210Z</time>
      </trkpt>
      <trkpt lat="42.2088" lon="43.38959">
        <ele>804.222538</ele>
        <time>2021-09-25T08:37:25.209Z</time>
      </trkpt>
      <trkpt lat="42.20766" lon="43.39188">
        <ele>830.82226</ele>
        <time>2021-09-25T08:40:06.210Z</time>
      </trkpt>
      <trkpt lat="42.20605" lon="43.39366">
        <ele>830.947421</ele>
        <time>2021-09-25T08:41:17.215Z</time>
      </trkpt>
      <trkpt lat="42.20414" lon="43.39639">
        <ele>815.411401</ele>
        <time>2021-09-25T08:41:53.215Z</time>
      </trkpt>
      <trkpt lat="42.20266" lon="43.39914">
        <ele>789.002911</ele>
        <time>2021-09-25T08:42:27.221Z</time>
      </trkpt>
      <trkpt lat="42.20326" lon="43.40192">
        <ele>792.664783</ele>
        <time>2021-09-25T08:43:21.203Z</time>
      </trkpt>
      <trkpt lat="42.20491" lon="43.40339">
        <ele>804.773435</ele>
        <time>2021-09-25T08:45:15.213Z</time>
      </trkpt>
      <trkpt lat="42.20682" lon="43.40444">
        <ele>808.599977</ele>
        <time>2021-09-25T08:46:17.208Z</time>
      </trkpt>
      <trkpt lat="42.20803" lon="43.40672">
        <ele>807.261537</ele>
        <time>2021-09-25T08:50:59.197Z</time>
      </trkpt>
      <trkpt lat="42.20905" lon="43.40941">
        <ele>803.560566</ele>
        <time>2021-09-25T08:52:03.202Z</time>
      </trkpt>
      <trkpt lat="42.20851" lon="43.41152">
        <ele>808.548496</ele>
        <time>2021-09-25T08:53:08.211Z</time>
      </trkpt>
      <trkpt lat="42.20921" lon="43.41411">
        <ele>808.518041</ele>
        <time>2021-09-25T08:54:33.208Z</time>
      </trkpt>
      <trkpt lat="42.20953" lon="43.41691">
        <ele>795.74606</ele>
        <time>2021-09-25T08:55:31.218Z</time>
      </trkpt>
      <trkpt lat="42.20976" lon="43.41983">
        <ele>784.554961</ele>
        <time>2021-09-25T08:56:31.197Z</time>
      </trkpt>
      <trkpt lat="42.21165" lon="43.42086">
        <ele>792.077507</ele>
        <time>2021-09-25T08:58:12.206Z</time>
      </trkpt>
      <trkpt lat="42.21359" lon="43.42199">
        <ele>800.116133</ele>
        <time>2021-09-25T08:59:30.224Z</time>
      </trkpt>
      <trkpt lat="42.21528" lon="43.42386">
        <ele>795.63701</ele>
        <time>2021-09-25T09:00:33.217Z</time>
      </trkpt>
      <trkpt lat="42.21743" lon="43.42647">
        <ele>787.885885</ele>
        <time>2021-09-25T09:01:19.217Z</time>
      </trkpt>
      <trkpt lat="42.21825" lon="43.42894">
        <ele>788.760536</ele>
        <time>2021-09-25T09:02:43.217Z</time>
      </trkpt>
      <trkpt lat="42.2192" lon="43.43203">
        <ele>796.295443</ele>
        <time>2021-09-25T09:03:27.230Z</time>
      </trkpt>
      <trkpt lat="42.22067" lon="43.43387">
        <ele>811.978602</ele>
        <time>2021-09-25T09:05:12.210Z</time>
      </trkpt>
      <trkpt lat="42.22139" lon="43.43679">
        <ele>815.790075</ele>
        <time>2021-09-25T09:06:07.217Z</time>
      </trkpt>
      <trkpt lat="42.22233" lon="43.43946">
        <ele>809.460825</ele>
        <time>2021-09-25T09:07:21.219Z</time>
      </trkpt>
      <trkpt lat="42.22272" lon="43.44244">
        <ele>809.639605</ele>
        <time>2021-09-25T09:08:35.213Z</time>
      </trkpt>
      <trkpt lat="42.22293" lon="43.4457">
        <ele>803.111833</ele>
        <time>2021-09-25T09:09:25.209Z</time>
      </trkpt>
      <trkpt lat="42.22313" lon="43.4489">
        <ele>800.595445</ele>
        <time>2021-09-25T09:10:27.217Z</time>
      </trkpt>
      <trkpt lat="42.22184" lon="43.45086">
        <ele>803.385919</ele>
        <time>2021-09-25T09:11:33.211Z</time>
      </trkpt>
      <trkpt lat="42.2215" lon="43.45323">
        <ele>826.30201</ele>
        <time>2021-09-25T09:14:00.235Z</time>
      </trkpt>
      <trkpt lat="42.2216" lon="43.45568">
        <ele>842.763994</ele>
        <time>2021-09-25T09:16:30.203Z</time>
      </trkpt>
      <trkpt lat="42.22176" lon="43.45845">
        <ele>850.544309</ele>
        <time>2021-09-25T09:18:43.214Z</time>
      </trkpt>
      <trkpt lat="42.2218" lon="43.46107">
        <ele>866.776291</ele>
        <time>2021-09-25T09:20:47.227Z</time>
      </trkpt>
      <trkpt lat="42.22174" lon="43.46368">
        <ele>878.302277</ele>
        <time>2021-09-25T09:23:01.214Z</time>
      </trkpt>
      <trkpt lat="42.2211" lon="43.46608">
        <ele>886.361666</ele>
        <time>2021-09-25T09:25:10.216Z</time>
      </trkpt>
      <trkpt lat="42.21972" lon="43.46808">
        <ele>890.0818</ele>
        <time>2021-09-25T09:27:03.208Z</time>
      </trkpt>
      <trkpt lat="42.21909" lon="43.47045">
        <ele>904.921645</ele>
        <time>2021-09-25T09:29:33.203Z</time>
      </trkpt>
      <trkpt lat="42.21893" lon="43.47296">
        <ele>922.389707</ele>
        <time>2021-09-25T09:32:10.235Z</time>
      </trkpt>
      <trkpt lat="42.21865" lon="43.47555">
        <ele>934.214481</ele>
        <time>2021-09-25T09:34:35.222Z</time>
      </trkpt>
      <trkpt lat="42.21869" lon="43.47825">
        <ele>940.887187</ele>
        <time>2021-09-25T09:37:06.246Z</time>
      </trkpt>
      <trkpt lat="42.2187" lon="43.48089">
        <ele>953.476054</ele>
        <time>2021-09-25T09:42:46.219Z</time>
      </trkpt>
      <trkpt lat="42.21778" lon="43.48327">
        <ele>965.104396</ele>
        <time>2021-09-25T09:48:04.217Z</time>
      </trkpt>
      <trkpt lat="42.21711" lon="43.48586">
        <ele>967.112986</ele>
        <time>2021-09-25T10:00:22.217Z</time>
      </trkpt>
      <trkpt lat="42.21732" lon="43.48882">
        <ele>963.580876</ele>
        <time>2021-09-25T10:06:52.218Z</time>
      </trkpt>
      <trkpt lat="42.2176" lon="43.49156">
        <ele>955.344722</ele>
        <time>2021-09-25T10:09:11.219Z</time>
      </trkpt>
      <trkpt lat="42.21864" lon="43.49314">
        <ele>954.88877</ele>
        <time>2021-09-25T10:11:57.216Z</time>
      </trkpt>
      <trkpt lat="42.21913" lon="43.4954">
        <ele>963.088055</ele>
        <time>2021-09-25T10:15:48.216Z</time>
      </trkpt>
      <trkpt lat="42.22016" lon="43.49755">
        <ele>978.995382</ele>
        <time>2021-09-25T10:19:46.219Z</time>
      </trkpt>
      <trkpt lat="42.22136" lon="43.49978">
        <ele>980.952236</ele>
        <time>2021-09-25T10:30:48.217Z</time>
      </trkpt>
      <trkpt lat="42.22157" lon="43.50234">
        <ele>978.900725</ele>
        <time>2021-09-25T10:34:09.221Z</time>
      </trkpt>
      <trkpt lat="42.22024" lon="43.50433">
        <ele>975.900246</ele>
        <time>2021-09-25T10:37:18.218Z</time>
      </trkpt>
      <trkpt lat="42.21835" lon="43.50575">
        <ele>980.52183</ele>
        <time>2021-09-25T10:38:25.225Z</time>
      </trkpt>
      <trkpt lat="42.21666" lon="43.50765">
        <ele>979.16717</ele>
        <time>2021-09-25T10:39:48.226Z</time>
      </trkpt>
      <trkpt lat="42.21572" lon="43.51085">
        <ele>976.151332</ele>
        <time>2021-09-25T10:40:39.224Z</time>
      </trkpt>
      <trkpt lat="42.21537" lon="43.51432">
        <ele>974.056648</ele>
        <time>2021-09-25T10:41:25.227Z</time>
      </trkpt>
      <trkpt lat="42.21338" lon="43.51638">
        <ele>961.734852</ele>
        <time>2021-09-25T10:42:13.223Z</time>
      </trkpt>
      <trkpt lat="42.21216" lon="43.52015">
        <ele>943.556248</ele>
        <time>2021-09-25T10:42:53.204Z</time>
      </trkpt>
      <trkpt lat="42.2118" lon="43.52303">
        <ele>930.409074</ele>
        <time>2021-09-25T10:43:16.234Z</time>
      </trkpt>
      <trkpt lat="42.21143" lon="43.52628">
        <ele>920.308475</ele>
        <time>2021-09-25T10:43:43.242Z</time>
      </trkpt>
      <trkpt lat="42.21003" lon="43.52968">
        <ele>909.472685</ele>
        <time>2021-09-25T10:44:23.265Z</time>
      </trkpt>
      <trkpt lat="42.20832" lon="43.53273">
        <ele>882.988198</ele>
        <time>2021-09-25T10:45:05.243Z</time>
      </trkpt>
      <trkpt lat="42.20624" lon="43.53342">
        <ele>862.269423</ele>
        <time>2021-09-25T10:45:45.244Z</time>
      </trkpt>
      <trkpt lat="42.20671" lon="43.53629">
        <ele>843.349234</ele>
        <time>2021-09-25T10:46:25.223Z</time>
      </trkpt>
      <trkpt lat="42.20851" lon="43.53758">
        <ele>816.591389</ele>
        <time>2021-09-25T10:47:06.228Z</time>
      </trkpt>
      <trkpt lat="42.21055" lon="43.53947">
        <ele>791.276822</ele>
        <time>2021-09-25T10:47:48.237Z</time>
      </trkpt>
      <trkpt lat="42.21198" lon="43.53763">
        <ele>778.098588</ele>
        <time>2021-09-25T10:48:28.237Z</time>
      </trkpt>
      <trkpt lat="42.21266" lon="43.54009">
        <ele>789.647924</ele>
        <time>2021-09-25T10:49:42.247Z</time>
      </trkpt>
      <trkpt lat="42.21338" lon="43.5421">
        <ele>801.496723</ele>
        <time>2021-09-25T10:51:26.233Z</time>
      </trkpt>
      <trkpt lat="42.21338" lon="43.54413">
        <ele>795.932353</ele>
        <time>2021-09-25T10:52:25.220Z</time>
      </trkpt>
      <trkpt lat="42.21122" lon="43.545">
        <ele>792.148621</ele>
        <time>2021-09-25T10:53:12.239Z</time>
      </trkpt>
      <trkpt lat="42.2101" lon="43.54691">
        <ele>796.372493</ele>
        <time>2021-09-25T10:54:24.244Z</time>
      </trkpt>
      <trkpt lat="42.21005" lon="43.54959">
        <ele>805.632804</ele>
        <time>2021-09-25T10:55:49.240Z</time>
      </trkpt>
      <trkpt lat="42.20994" lon="43.55262">
        <ele>806.110754</ele>
        <time>2021-09-25T10:57:05.230Z</time>
      </trkpt>
      <trkpt lat="42.20908" lon="43.55503">
        <ele>808.787548</ele>
        <time>2021-09-25T10:58:26.242Z</time>
      </trkpt>
      <trkpt lat="42.20748" lon="43.55681">
        <ele>816.064532</ele>
        <time>2021-09-25T10:59:49.217Z</time>
      </trkpt>
      <trkpt lat="42.20599" lon="43.55861">
        <ele>820.82559</ele>
        <time>2021-09-25T11:01:23.244Z</time>
      </trkpt>
      <trkpt lat="42.20471" lon="43.56083">
        <ele>830.583437</ele>
        <time>2021-09-25T11:03:05.235Z</time>
      </trkpt>
      <trkpt lat="42.20492" lon="43.56334">
        <ele>850.831353</ele>
        <time>2021-09-25T11:05:18.250Z</time>
      </trkpt>
      <trkpt lat="42.20491" lon="43.56587">
        <ele>860.630055</ele>
        <time>2021-09-25T11:07:17.240Z</time>
      </trkpt>
      <trkpt lat="42.20375" lon="43.56786">
        <ele>873.05069</ele>
        <time>2021-09-25T11:09:44.246Z</time>
      </trkpt>
      <trkpt lat="42.20232" lon="43.56973">
        <ele>886.725975</ele>
        <time>2021-09-25T11:12:30.229Z</time>
      </trkpt>
      <trkpt lat="42.20342" lon="43.57139">
        <ele>901.136456</ele>
        <time>2021-09-25T11:15:03.239Z</time>
      </trkpt>
      <trkpt lat="42.20399" lon="43.57395">
        <ele>917.812651</ele>
        <time>2021-09-25T11:16:55.227Z</time>
      </trkpt>
      <trkpt lat="42.20441" lon="43.57663">
        <ele>918.717949</ele>
        <time>2021-09-25T11:18:21.268Z</time>
      </trkpt>
      <trkpt lat="42.20358" lon="43.5791">
        <ele>915.77394</ele>
        <time>2021-09-25T11:19:54.244Z</time>
      </trkpt>
      <trkpt lat="42.20229" lon="43.58119">
        <ele>917.042574</ele>
        <time>2021-09-25T11:21:19.246Z</time>
      </trkpt>
      <trkpt lat="42.20081" lon="43.58307">
        <ele>924.894657</ele>
        <time>2021-09-25T11:22:53.233Z</time>
      </trkpt>
      <trkpt lat="42.19975" lon="43.58527">
        <ele>938.190855</ele>
        <time>2021-09-25T11:25:01.276Z</time>
      </trkpt>
      <trkpt lat="42.1988" lon="43.58756">
        <ele>955.595907</ele>
        <time>2021-09-25T11:27:22.275Z</time>
      </trkpt>
      <trkpt lat="42.19796" lon="43.59001">
        <ele>967.985724</ele>
        <time>2021-09-25T11:29:44.236Z</time>
      </trkpt>
      <trkpt lat="42.19659" lon="43.59179">
        <ele>984.143327</ele>
        <time>2021-09-25T11:32:12.286Z</time>
      </trkpt>
      <trkpt lat="42.19604" lon="43.59428">
        <ele>998.449015</ele>
        <time>2021-09-25T11:34:46.245Z</time>
      </trkpt>
      <trkpt lat="42.19587" lon="43.59732">
        <ele>991.882553</ele>
        <time>2021-09-25T11:44:02.238Z</time>
      </trkpt>
      <trkpt lat="42.19537" lon="43.60058">
        <ele>977.481289</ele>
        <time>2021-09-25T11:44:44.244Z</time>
      </trkpt>
      <trkpt lat="42.19477" lon="43.60382">
        <ele>957.867347</ele>
        <time>2021-09-25T11:45:24.226Z</time>
      </trkpt>
      <trkpt lat="42.1948" lon="43.60703">
        <ele>938.693529</ele>
        <time>2021-09-25T11:46:04.254Z</time>
      </trkpt>
      <trkpt lat="42.19375" lon="43.60991">
        <ele>926.544944</ele>
        <time>2021-09-25T11:46:44.247Z</time>
      </trkpt>
      <trkpt lat="42.19139" lon="43.61187">
        <ele>915.255755</ele>
        <time>2021-09-25T11:47:26.227Z</time>
      </trkpt>
      <trkpt lat="42.18898" lon="43.61376">
        <ele>907.365632</ele>
        <time>2021-09-25T11:48:06.247Z</time>
      </trkpt>
      <trkpt lat="42.18612" lon="43.61388">
        <ele>906.061778</ele>
        <time>2021-09-25T11:48:46.246Z</time>
      </trkpt>
      <trkpt lat="42.18429" lon="43.61676">
        <ele>897.262144</ele>
        <time>2021-09-25T11:49:26.245Z</time>
      </trkpt>
      <trkpt lat="42.18248" lon="43.61852">
        <ele>901.251742</ele>
        <time>2021-09-25T11:50:17.255Z</time>
      </trkpt>
      <trkpt lat="42.18041" lon="43.61877">
        <ele>916.95387</ele>
        <time>2021-09-25T11:51:24.248Z</time>
      </trkpt>
      <trkpt lat="42.17837" lon="43.61929">
        <ele>914.903176</ele>
        <time>2021-09-25T11:52:09.250Z</time>
      </trkpt>
      <trkpt lat="42.17651" lon="43.62052">
        <ele>908.178676</ele>
        <time>2021-09-25T11:52:49.249Z</time>
      </trkpt>
      <trkpt lat="42.17409" lon="43.62239">
        <ele>894.566248</ele>
        <time>2021-09-25T11:53:31.238Z</time>
      </trkpt>
      <trkpt lat="42.1719" lon="43.62511">
        <ele>876.482359</ele>
        <time>2021-09-25T11:54:08.242Z</time>
      </trkpt>
      <trkpt lat="42.1695" lon="43.62551">
        <ele>874.978885</ele>
        <time>2021-09-25T11:54:51.238Z</time>
      </trkpt>
      <trkpt lat="42.16727" lon="43.62533">
        <ele>878.197296</ele>
        <time>2021-09-25T11:55:47.249Z</time>
      </trkpt>
      <trkpt lat="42.16481" lon="43.62664">
        <ele>864.244641</ele>
        <time>2021-09-25T11:56:20.246Z</time>
      </trkpt>
      <trkpt lat="42.1634" lon="43.62866">
        <ele>854.948225</ele>
        <time>2021-09-25T11:56:41.239Z</time>
      </trkpt>
      <trkpt lat="42.16215" lon="43.6314">
        <ele>842.993517</ele>
        <time>2021-09-25T11:57:16.234Z</time>
      </trkpt>
      <trkpt lat="42.16059" lon="43.63352">
        <ele>840.549219</ele>
        <time>2021-09-25T11:58:09.243Z</time>
      </trkpt>
      <trkpt lat="42.15856" lon="43.63619">
        <ele>835.561445</ele>
        <time>2021-09-25T11:58:56.252Z</time>
      </trkpt>
      <trkpt lat="42.15656" lon="43.6379">
        <ele>835.757031</ele>
        <time>2021-09-25T11:59:47.256Z</time>
      </trkpt>
      <trkpt lat="42.15467" lon="43.63957">
        <ele>829.447079</ele>
        <time>2021-09-25T12:00:35.238Z</time>
      </trkpt>
      <trkpt lat="42.15222" lon="43.64013">
        <ele>824.645138</ele>
        <time>2021-09-25T12:01:15.276Z</time>
      </trkpt>
      <trkpt lat="42.14977" lon="43.64152">
        <ele>819.343403</ele>
        <time>2021-09-25T12:01:58.296Z</time>
      </trkpt>
      <trkpt lat="42.1484" lon="43.64358">
        <ele>819.124447</ele>
        <time>2021-09-25T12:02:38.231Z</time>
      </trkpt>
      <trkpt lat="42.14639" lon="43.64513">
        <ele>817.482705</ele>
        <time>2021-09-25T12:03:22.259Z</time>
      </trkpt>
      <trkpt lat="42.1441" lon="43.64553">
        <ele>815.424949</ele>
        <time>2021-09-25T12:04:08.245Z</time>
      </trkpt>
      <trkpt lat="42.14251" lon="43.64333">
        <ele>823.541393</ele>
        <time>2021-09-25T12:05:00.283Z</time>
      </trkpt>
      <trkpt lat="42.14068" lon="43.64189">
        <ele>818.492005</ele>
        <time>2021-09-25T12:05:45.250Z</time>
      </trkpt>
      <trkpt lat="42.1387" lon="43.6405">
        <ele>813.41924</ele>
        <time>2021-09-25T12:06:35.255Z</time>
      </trkpt>
      <trkpt lat="42.13668" lon="43.64171">
        <ele>809.759393</ele>
        <time>2021-09-25T12:07:16.246Z</time>
      </trkpt>
      <trkpt lat="42.13435" lon="43.64213">
        <ele>808.522398</ele>
        <time>2021-09-25T12:08:10.274Z</time>
      </trkpt>
      <trkpt lat="42.13254" lon="43.64359">
        <ele>805.070847</ele>
        <time>2021-09-25T12:09:01.240Z</time>
      </trkpt>
      <trkpt lat="42.13036" lon="43.64324">
        <ele>799.3843</ele>
        <time>2021-09-25T12:09:49.270Z</time>
      </trkpt>
      <trkpt lat="42.12816" lon="43.64284">
        <ele>798.040856</ele>
        <time>2021-09-25T12:10:31.244Z</time>
      </trkpt>
      <trkpt lat="42.12617" lon="43.64184">
        <ele>797.330652</ele>
        <time>2021-09-25T12:11:13.259Z</time>
      </trkpt>
      <trkpt lat="42.12421" lon="43.64384">
        <ele>787.709271</ele>
        <time>2021-09-25T12:11:54.246Z</time>
      </trkpt>
      <trkpt lat="42.12344" lon="43.64666">
        <ele>777.006896</ele>
        <time>2021-09-25T12:12:41.282Z</time>
      </trkpt>
      <trkpt lat="42.12107" lon="43.64633">
        <ele>780.63177</ele>
        <time>2021-09-25T12:13:38.240Z</time>
      </trkpt>
      <trkpt lat="42.11918" lon="43.64468">
        <ele>791.028161</ele>
        <time>2021-09-25T12:14:40.252Z</time>
      </trkpt>
      <trkpt lat="42.117" lon="43.64598">
        <ele>780.1364</ele>
        <time>2021-09-25T12:15:26.265Z</time>
      </trkpt>
      <trkpt lat="42.11488" lon="43.64659">
        <ele>771.969106</ele>
        <time>2021-09-25T12:16:06.295Z</time>
      </trkpt>
      <trkpt lat="42.11283" lon="43.64561">
        <ele>769.070771</ele>
        <time>2021-09-25T12:16:49.285Z</time>
      </trkpt>
      <trkpt lat="42.11093" lon="43.64518">
        <ele>771.315152</ele>
        <time>2021-09-25T12:17:30.243Z</time>
      </trkpt>
      <trkpt lat="42.10923" lon="43.64362">
        <ele>774.553088</ele>
        <time>2021-09-25T12:18:15.261Z</time>
      </trkpt>
      <trkpt lat="42.10746" lon="43.64506">
        <ele>767.184233</ele>
        <time>2021-09-25T12:19:01.249Z</time>
      </trkpt>
      <trkpt lat="42.10536" lon="43.64528">
        <ele>761.006383</ele>
        <time>2021-09-25T12:19:43.270Z</time>
      </trkpt>
      <trkpt lat="42.10331" lon="43.64585">
        <ele>758.808869</ele>
        <time>2021-09-25T12:20:26.254Z</time>
      </trkpt>
      <trkpt lat="42.10186" lon="43.64798">
        <ele>766.692495</ele>
        <time>2021-09-25T12:21:58.243Z</time>
      </trkpt>
      <trkpt lat="42.09983" lon="43.64847">
        <ele>760.419633</ele>
        <time>2021-09-25T12:34:38.266Z</time>
      </trkpt>
      <trkpt lat="42.09739" lon="43.64842">
        <ele>754.371505</ele>
        <time>2021-09-25T12:35:18.257Z</time>
      </trkpt>
      <trkpt lat="42.0949" lon="43.64905">
        <ele>748.044836</ele>
        <time>2021-09-25T12:35:58.287Z</time>
      </trkpt>
      <trkpt lat="42.09276" lon="43.64998">
        <ele>744.087762</ele>
        <time>2021-09-25T12:36:40.281Z</time>
      </trkpt>
      <trkpt lat="42.09087" lon="43.65114">
        <ele>742.767505</ele>
        <time>2021-09-25T12:37:25.255Z</time>
      </trkpt>
      <trkpt lat="42.08873" lon="43.65228">
        <ele>742.284302</ele>
        <time>2021-09-25T12:38:18.258Z</time>
      </trkpt>
      <trkpt lat="42.0868" lon="43.65324">
        <ele>740.230097</ele>
        <time>2021-09-25T12:38:58.285Z</time>
      </trkpt>
      <trkpt lat="42.08428" lon="43.65446">
        <ele>734.563377</ele>
        <time>2021-09-25T12:39:40.247Z</time>
      </trkpt>
      <trkpt lat="42.08233" lon="43.65544">
        <ele>732.539812</ele>
        <time>2021-09-25T12:40:20.283Z</time>
      </trkpt>
      <trkpt lat="42.08046" lon="43.65637">
        <ele>731.719742</ele>
        <time>2021-09-25T12:41:03.275Z</time>
      </trkpt>
      <trkpt lat="42.07846" lon="43.65741">
        <ele>731.146079</ele>
        <time>2021-09-25T12:41:49.286Z</time>
      </trkpt>
      <trkpt lat="42.07628" lon="43.65842">
        <ele>736.366748</ele>
        <time>2021-09-25T12:42:52.258Z</time>
      </trkpt>
      <trkpt lat="42.07431" lon="43.65976">
        <ele>736.112261</ele>
        <time>2021-09-25T12:43:40.270Z</time>
      </trkpt>
      <trkpt lat="42.0724" lon="43.662">
        <ele>730.59571</ele>
        <time>2021-09-25T12:44:21.262Z</time>
      </trkpt>
      <trkpt lat="42.07075" lon="43.66408">
        <ele>728.965683</ele>
        <time>2021-09-25T12:45:13.274Z</time>
      </trkpt>
      <trkpt lat="42.06904" lon="43.6662">
        <ele>722.067986</ele>
        <time>2021-09-25T12:46:02.253Z</time>
      </trkpt>
      <trkpt lat="42.06728" lon="43.66837">
        <ele>725.05993</ele>
        <time>2021-09-25T12:47:02.266Z</time>
      </trkpt>
      <trkpt lat="42.06538" lon="43.67023">
        <ele>724.693036</ele>
        <time>2021-09-25T12:47:47.280Z</time>
      </trkpt>
      <trkpt lat="42.06325" lon="43.67172">
        <ele>724.417102</ele>
        <time>2021-09-25T12:48:43.268Z</time>
      </trkpt>
      <trkpt lat="42.06137" lon="43.67306">
        <ele>722.466109</ele>
        <time>2021-09-25T12:49:25.245Z</time>
      </trkpt>
      <trkpt lat="42.05945" lon="43.67445">
        <ele>721.886599</ele>
        <time>2021-09-25T12:50:14.261Z</time>
      </trkpt>
      <trkpt lat="42.05727" lon="43.67607">
        <ele>721.355927</ele>
        <time>2021-09-25T12:51:13.264Z</time>
      </trkpt>
      <trkpt lat="42.0557" lon="43.67841">
        <ele>718.186006</ele>
        <time>2021-09-25T12:51:58.272Z</time>
      </trkpt>
      <trkpt lat="42.0545" lon="43.68157">
        <ele>707.113155</ele>
        <time>2021-09-25T12:52:44.297Z</time>
      </trkpt>
      <trkpt lat="42.05339" lon="43.68403">
        <ele>706.998288</ele>
        <time>2021-09-25T12:53:27.269Z</time>
      </trkpt>
      <trkpt lat="42.0523" lon="43.68679">
        <ele>710.844963</ele>
        <time>2021-09-25T12:54:23.274Z</time>
      </trkpt>
      <trkpt lat="42.05155" lon="43.68932">
        <ele>710.301799</ele>
        <time>2021-09-25T12:55:06.262Z</time>
      </trkpt>
      <trkpt lat="42.05081" lon="43.69214">
        <ele>709.655368</ele>
        <time>2021-09-25T12:55:54.260Z</time>
      </trkpt>
      <trkpt lat="42.05022" lon="43.6947">
        <ele>706.779135</ele>
        <time>2021-09-25T12:56:35.266Z</time>
      </trkpt>
      <trkpt lat="42.04947" lon="43.69767">
        <ele>708.04478</ele>
        <time>2021-09-25T12:57:30.281Z</time>
      </trkpt>
      <trkpt lat="42.0482" lon="43.69999">
        <ele>707.485652</ele>
        <time>2021-09-25T12:58:18.258Z</time>
      </trkpt>
      <trkpt lat="42.04669" lon="43.70243">
        <ele>703.442155</ele>
        <time>2021-09-25T12:58:58.286Z</time>
      </trkpt>
      <trkpt lat="42.04554" lon="43.70494">
        <ele>699.779623</ele>
        <time>2021-09-25T12:59:41.261Z</time>
      </trkpt>
      <trkpt lat="42.04368" lon="43.70626">
        <ele>704.249184</ele>
        <time>2021-09-25T13:00:33.276Z</time>
      </trkpt>
      <trkpt lat="42.04172" lon="43.70781">
        <ele>708.598091</ele>
        <time>2021-09-25T13:01:28.274Z</time>
      </trkpt>
      <trkpt lat="42.04046" lon="43.71029">
        <ele>709.495522</ele>
        <time>2021-09-25T13:02:21.298Z</time>
      </trkpt>
      <trkpt lat="42.03884" lon="43.71224">
        <ele>710.343938</ele>
        <time>2021-09-25T13:03:29.255Z</time>
      </trkpt>
      <trkpt lat="42.03674" lon="43.71249">
        <ele>712.392138</ele>
        <time>2021-09-25T13:04:33.266Z</time>
      </trkpt>
      <trkpt lat="42.03464" lon="43.71278">
        <ele>707.667109</ele>
        <time>2021-09-25T13:05:14.264Z</time>
      </trkpt>
      <trkpt lat="42.03259" lon="43.71314">
        <ele>701.727484</ele>
        <time>2021-09-25T13:05:57.254Z</time>
      </trkpt>
      <trkpt lat="42.03047" lon="43.71419">
        <ele>697.380889</ele>
        <time>2021-09-25T13:06:43.276Z</time>
      </trkpt>
      <trkpt lat="42.02843" lon="43.7154">
        <ele>690.433282</ele>
        <time>2021-09-25T13:07:24.255Z</time>
      </trkpt>
      <trkpt lat="42.02652" lon="43.71647">
        <ele>688.123548</ele>
        <time>2021-09-25T13:08:06.262Z</time>
      </trkpt>
      <trkpt lat="42.02488" lon="43.7186">
        <ele>689.770512</ele>
        <time>2021-09-25T13:08:58.272Z</time>
      </trkpt>
      <trkpt lat="42.02353" lon="43.72108">
        <ele>693.976538</ele>
        <time>2021-09-25T13:09:49.275Z</time>
      </trkpt>
      <trkpt lat="42.02238" lon="43.72334">
        <ele>694.880912</ele>
        <time>2021-09-25T13:10:33.258Z</time>
      </trkpt>
      <trkpt lat="42.02161" lon="43.72582">
        <ele>693.762186</ele>
        <time>2021-09-25T13:11:16.255Z</time>
      </trkpt>
      <trkpt lat="42.02097" lon="43.72862">
        <ele>694.951033</ele>
        <time>2021-09-25T13:12:05.275Z</time>
      </trkpt>
      <trkpt lat="42.02062" lon="43.73089">
        <ele>690.814924</ele>
        <time>2021-09-25T13:12:57.315Z</time>
      </trkpt>
      <trkpt lat="42.01841" lon="43.73128">
        <ele>688.920844</ele>
        <time>2021-09-25T13:13:47.308Z</time>
      </trkpt>
      <trkpt lat="42.01737" lon="43.72869">
        <ele>692.211472</ele>
        <time>2021-09-25T13:14:47.284Z</time>
      </trkpt>
      <trkpt lat="42.01658" lon="43.72562">
        <ele>692.590652</ele>
        <time>2021-09-25T13:15:46.264Z</time>
      </trkpt>
      <trkpt lat="42.01576" lon="43.72249">
        <ele>694.089529</ele>
        <time>2021-09-25T13:16:47.255Z</time>
      </trkpt>
      <trkpt lat="42.01493" lon="43.71933">
        <ele>696.21904</ele>
        <time>2021-09-25T13:17:47.267Z</time>
      </trkpt>
      <trkpt lat="42.01445" lon="43.71649">
        <ele>698.593644</ele>
        <time>2021-09-25T13:18:48.262Z</time>
      </trkpt>
      <trkpt lat="42.01417" lon="43.71358">
        <ele>696.85276</ele>
        <time>2021-09-25T13:19:49.275Z</time>
      </trkpt>
      <trkpt lat="42.01344" lon="43.71061">
        <ele>700.427834</ele>
        <time>2021-09-25T13:20:52.280Z</time>
      </trkpt>
      <trkpt lat="42.01274" lon="43.7078">
        <ele>696.271114</ele>
        <time>2021-09-25T13:21:51.263Z</time>
      </trkpt>
      <trkpt lat="42.0123" lon="43.70506">
        <ele>695.913463</ele>
        <time>2021-09-25T13:25:17.268Z</time>
      </trkpt>
      <trkpt lat="42.01185" lon="43.70248">
        <ele>703.162148</ele>
        <time>2021-09-25T13:26:31.265Z</time>
      </trkpt>
      <trkpt lat="42.01134" lon="43.69964">
        <ele>708.341439</ele>
        <time>2021-09-25T13:28:07.289Z</time>
      </trkpt>
      <trkpt lat="42.01071" lon="43.69659">
        <ele>702.340344</ele>
        <time>2021-09-25T13:28:57.291Z</time>
      </trkpt>
      <trkpt lat="42.01007" lon="43.69335">
        <ele>691.01225</ele>
        <time>2021-09-25T13:29:29.278Z</time>
      </trkpt>
      <trkpt lat="42.00933" lon="43.69089">
        <ele>693.623323</ele>
        <time>2021-09-25T13:30:09.275Z</time>
      </trkpt>
      <trkpt lat="42.00822" lon="43.6882">
        <ele>695.97959</ele>
        <time>2021-09-25T13:31:00.281Z</time>
      </trkpt>
      <trkpt lat="42.00707" lon="43.68535">
        <ele>702.230534</ele>
        <time>2021-09-25T13:31:55.325Z</time>
      </trkpt>
      <trkpt lat="42.00599" lon="43.68246">
        <ele>708.365503</ele>
        <time>2021-09-25T13:32:51.282Z</time>
      </trkpt>
      <trkpt lat="42.00496" lon="43.67965">
        <ele>711.58689</ele>
        <time>2021-09-25T13:33:45.289Z</time>
      </trkpt>
      <trkpt lat="42.004" lon="43.67644">
        <ele>715.162837</ele>
        <time>2021-09-25T13:34:48.286Z</time>
      </trkpt>
      <trkpt lat="42.00326" lon="43.67335">
        <ele>718.956714</ele>
        <time>2021-09-25T13:35:45.284Z</time>
      </trkpt>
      <trkpt lat="42.00252" lon="43.67027">
        <ele>722.034701</ele>
        <time>2021-09-25T13:36:43.261Z</time>
      </trkpt>
      <trkpt lat="42.00178" lon="43.66716">
        <ele>719.035221</ele>
        <time>2021-09-25T13:37:41.296Z</time>
      </trkpt>
      <trkpt lat="42.00108" lon="43.66421">
        <ele>714.450608</ele>
        <time>2021-09-25T13:38:32.275Z</time>
      </trkpt>
      <trkpt lat="42.00039" lon="43.66121">
        <ele>715.011951</ele>
        <time>2021-09-25T13:39:26.268Z</time>
      </trkpt>
      <trkpt lat="41.99962" lon="43.65796">
        <ele>714.39368</ele>
        <time>2021-09-25T13:40:26.272Z</time>
      </trkpt>
      <trkpt lat="41.99887" lon="43.6547">
        <ele>713.538084</ele>
        <time>2021-09-25T13:41:26.266Z</time>
      </trkpt>
      <trkpt lat="41.99814" lon="43.65155">
        <ele>710.182465</ele>
        <time>2021-09-25T13:42:26.261Z</time>
      </trkpt>
      <trkpt lat="41.99731" lon="43.64828">
        <ele>714.887563</ele>
        <time>2021-09-25T13:43:29.292Z</time>
      </trkpt>
      <trkpt lat="41.99656" lon="43.64513">
        <ele>708.445371</ele>
        <time>2021-09-25T13:44:29.280Z</time>
      </trkpt>
      <trkpt lat="41.99586" lon="43.64219">
        <ele>706.952728</ele>
        <time>2021-09-25T13:45:24.271Z</time>
      </trkpt>
      <trkpt lat="41.9951" lon="43.63907">
        <ele>712.724211</ele>
        <time>2021-09-25T13:46:22.268Z</time>
      </trkpt>
      <trkpt lat="41.99407" lon="43.63587">
        <ele>713.977998</ele>
        <time>2021-09-25T13:47:24.264Z</time>
      </trkpt>
      <trkpt lat="41.99324" lon="43.63272">
        <ele>714.819907</ele>
        <time>2021-09-25T13:48:23.298Z</time>
      </trkpt>
      <trkpt lat="41.99248" lon="43.62958">
        <ele>721.698243</ele>
        <time>2021-09-25T13:49:22.273Z</time>
      </trkpt>
      <trkpt lat="41.99169" lon="43.62647">
        <ele>721.509875</ele>
        <time>2021-09-25T13:50:22.284Z</time>
      </trkpt>
      <trkpt lat="41.99084" lon="43.62314">
        <ele>721.858585</ele>
        <time>2021-09-25T13:51:25.263Z</time>
      </trkpt>
      <trkpt lat="41.99009" lon="43.62006">
        <ele>725.023037</ele>
        <time>2021-09-25T13:52:24.286Z</time>
      </trkpt>
      <trkpt lat="41.98936" lon="43.61715">
        <ele>721.719081</ele>
        <time>2021-09-25T13:53:18.279Z</time>
      </trkpt>
      <trkpt lat="41.98963" lon="43.614">
        <ele>722.754775</ele>
        <time>2021-09-25T13:54:14.275Z</time>
      </trkpt>
      <trkpt lat="41.99" lon="43.61064">
        <ele>723.894504</ele>
        <time>2021-09-25T13:55:17.259Z</time>
      </trkpt>
      <trkpt lat="41.99027" lon="43.60744">
        <ele>729.270347</ele>
        <time>2021-09-25T13:56:16.308Z</time>
      </trkpt>
      <trkpt lat="41.99032" lon="43.60452">
        <ele>728.597498</ele>
        <time>2021-09-25T13:57:16.275Z</time>
      </trkpt>
      <trkpt lat="41.99244" lon="43.60347">
        <ele>726.864847</ele>
        <time>2021-09-25T13:58:15.273Z</time>
      </trkpt>
      <trkpt lat="41.99458" lon="43.60264">
        <ele>730.719289</ele>
        <time>2021-09-25T13:59:19.267Z</time>
      </trkpt>
      <trkpt lat="41.99642" lon="43.60147">
        <ele>730.74913</ele>
        <time>2021-09-25T14:00:32.267Z</time>
      </trkpt>
      <trkpt lat="41.99695" lon="43.60025">
        <ele>730.74913</ele>
        <time>2021-09-25T14:02:45.769Z</time>
      </trkpt>
    </trkseg>
  </trk>
</gpx>